Hatchet Mtn Atmospheric Data: 07/12/2019 Summary  Detailed Graphs  Station List

  Temperature     Wind Precipitation Visibility
Timestamp Air Wet
Bulb
Dew-
point
24-hr
Max
24-hr
Min
Relative
Humidity
Atmospheric
Pressure
Avg
Speed
Avg
Dir
Spot
Speed
Spot
Dir
Max
Speed
Max
Dir
  Rate Situation Start End 1 hr 3 hr 6 hr 12 hr 24 hr   Situation
Date Time °F °F °F °F °F % in Hg mph ° mph ° mph ° Y/N in/hr text Date Time Date Time in in in in in mi text
07/12/2019 12:00 AM 57.92 52.52 48.38 79.16 52.34 70.0 Not Reported 3.58 W 3.80 W 4.47 W No 0.000 No Precipitation 05/30/2019 03:30 PM 05/30/2019 03:35 PM 0.000 0.000 0.000 0.000 0.000 Not Reported Not Reported
07/12/2019 12:05 AM 58.28 52.52 47.66 79.16 52.34 67.0 Not Reported 3.58 W 4.70 W 4.47 W No 0.000 No Precipitation 05/30/2019 03:30 PM 05/30/2019 03:35 PM 0.000 0.000 0.000 0.000 0.000 Not Reported Not Reported
07/12/2019 12:10 AM 58.64 52.70 47.84 79.16 52.34 67.0 Not Reported 3.58 W 3.13 NW 4.92 W No 0.000 No Precipitation 05/30/2019 03:30 PM 05/30/2019 03:35 PM 0.000 0.000 0.000 0.000 0.000 Not Reported Not Reported
07/12/2019 12:15 AM 58.10 51.98 46.94 79.16 52.34 66.0 Not Reported 3.58 NW 4.03 W 4.92 W No 0.000 No Precipitation 05/30/2019 03:30 PM 05/30/2019 03:35 PM 0.000 0.000 0.000 0.000 0.000 Not Reported Not Reported
07/12/2019 12:20 AM 58.28 52.16 47.30 79.16 52.34 66.0 Not Reported 4.25 W 4.03 W 4.92 W No 0.000 No Precipitation 05/30/2019 03:30 PM 05/30/2019 03:35 PM 0.000 0.000 0.000 0.000 0.000 Not Reported Not Reported
07/12/2019 12:25 AM 57.56 51.80 47.12 79.16 52.34 68.0 Not Reported 3.80 W 3.13 W 4.92 W No 0.000 No Precipitation 05/30/2019 03:30 PM 05/30/2019 03:35 PM 0.000 0.000 0.000 0.000 0.000 Not Reported Not Reported
07/12/2019 12:30 AM 58.10 52.16 47.30 79.16 52.34 66.0 Not Reported 3.80 NW 3.36 NW 4.92 W No 0.000 No Precipitation 05/30/2019 03:30 PM 05/30/2019 03:35 PM 0.000 0.000 0.000 0.000 0.000 Not Reported Not Reported
07/12/2019 12:35 AM 57.56 51.80 46.94 79.16 52.34 67.0 Not Reported 3.80 W 2.91 W 4.92 W No 0.000 No Precipitation 05/30/2019 03:30 PM 05/30/2019 03:35 PM 0.000 0.000 0.000 0.000 0.000 Not Reported Not Reported
07/12/2019 12:40 AM 57.20 51.62 47.12 79.16 52.34 68.0 Not Reported 4.25 NW 3.58 W 5.37 W No 0.000 No Precipitation 05/30/2019 03:30 PM 05/30/2019 03:35 PM 0.000 0.000 0.000 0.000 0.000 Not Reported Not Reported
07/12/2019 12:45 AM 56.48 51.26 46.76 79.16 52.34 70.0 Not Reported 4.03 W 4.92 W 5.37 W No 0.000 No Precipitation 05/30/2019 03:30 PM 05/30/2019 03:35 PM 0.000 0.000 0.000 0.000 0.000 Not Reported Not Reported
07/12/2019 12:50 AM 55.58 50.90 46.76 79.16 52.34 72.0 Not Reported 4.25 W 3.80 W 4.92 W No 0.000 No Precipitation 05/30/2019 03:30 PM 05/30/2019 03:35 PM 0.000 0.000 0.000 0.000 0.000 Not Reported Not Reported
07/12/2019 12:55 AM 55.58 50.90 46.94 79.16 52.34 72.0 Not Reported 4.25 W 3.80 W 4.92 W No 0.000 No Precipitation 05/30/2019 03:30 PM 05/30/2019 03:35 PM 0.000 0.000 0.000 0.000 0.000 Not Reported Not Reported
07/12/2019 01:00 AM 55.40 50.72 46.94 79.16 52.34 73.0 Not Reported 3.13 W 3.36 W 4.47 W No 0.000 No Precipitation 05/30/2019 03:30 PM 05/30/2019 03:35 PM 0.000 0.000 0.000 0.000 0.000 Not Reported Not Reported
07/12/2019 01:05 AM 55.58 50.90 46.94 79.16 52.34 72.0 Not Reported 3.58 W 3.13 W 4.47 W No 0.000 No Precipitation 05/30/2019 03:30 PM 05/30/2019 03:35 PM 0.000 0.000 0.000 0.000 0.000 Not Reported Not Reported
07/12/2019 01:10 AM 55.40 50.72 46.58 79.16 52.34 72.0 Not Reported 4.03 W 3.80 W 4.70 W No 0.000 No Precipitation 05/30/2019 03:30 PM 05/30/2019 03:35 PM 0.000 0.000 0.000 0.000 0.000 Not Reported Not Reported
07/12/2019 01:15 AM 55.58 50.72 46.76 79.16 52.34 72.0 Not Reported 3.58 W 3.36 W 4.70 W No 0.000 No Precipitation 05/30/2019 03:30 PM 05/30/2019 03:35 PM 0.000 0.000 0.000 0.000 0.000 Not Reported Not Reported
07/12/2019 01:20 AM 55.40 50.72 46.58 79.16 52.34 72.0 Not Reported 3.13 NW 2.91 NW 4.03 W No 0.000 No Precipitation 05/30/2019 03:30 PM 05/30/2019 03:35 PM 0.000 0.000 0.000 0.000 0.000 Not Reported Not Reported
07/12/2019 01:25 AM 55.40 50.54 46.58 79.16 52.34 72.0 Not Reported 3.13 NW 2.68 W 4.03 W No 0.000 No Precipitation 05/30/2019 03:30 PM 05/30/2019 03:35 PM 0.000 0.000 0.000 0.000 0.000 Not Reported Not Reported
07/12/2019 01:30 AM 55.40 50.72 46.58 79.16 52.34 71.0 Not Reported 3.58 W 4.03 W 4.25 W No 0.000 No Precipitation 05/30/2019 03:30 PM 05/30/2019 03:35 PM 0.000 0.000 0.000 0.000 0.000 Not Reported Not Reported
07/12/2019 01:35 AM 55.58 50.54 46.22 79.16 52.34 70.0 Not Reported 3.58 W 3.80 W 4.25 W No 0.000 No Precipitation 05/30/2019 03:30 PM 05/30/2019 03:35 PM 0.000 0.000 0.000 0.000 0.000 Not Reported Not Reported
07/12/2019 01:40 AM 55.58 50.72 46.40 79.16 52.34 70.0 Not Reported 2.91 NW 3.13 W 4.92 W No 0.000 No Precipitation 05/30/2019 03:30 PM 05/30/2019 03:35 PM 0.000 0.000 0.000 0.000 0.000 Not Reported Not Reported
07/12/2019 01:45 AM 55.04 50.36 46.40 79.16 52.34 72.0 Not Reported 3.13 W 2.91 W 4.92 W No 0.000 No Precipitation 05/30/2019 03:30 PM 05/30/2019 03:35 PM 0.000 0.000 0.000 0.000 0.000 Not Reported Not Reported
07/12/2019 01:50 AM 55.22 50.54 46.40 79.16 52.34 72.0 Not Reported 3.13 W 3.58 W 3.80 W No 0.000 No Precipitation 05/30/2019 03:30 PM 05/30/2019 03:35 PM 0.000 0.000 0.000 0.000 0.000 Not Reported Not Reported
07/12/2019 01:55 AM 55.40 50.54 46.22 79.16 52.34 71.0 Not Reported 3.58 W 2.91 W 3.80 W No 0.000 No Precipitation 05/30/2019 03:30 PM 05/30/2019 03:35 PM 0.000 0.000 0.000 0.000 0.000 Not Reported Not Reported
07/12/2019 02:00 AM 55.40 50.54 46.22 79.16 52.34 70.0 Not Reported 2.91 NW 2.91 NW 3.80 W No 0.000 No Precipitation 05/30/2019 03:30 PM 05/30/2019 03:35 PM 0.000 0.000 0.000 0.000 0.000 Not Reported Not Reported
07/12/2019 02:05 AM 55.40 50.54 46.22 79.16 52.34 71.0 Not Reported 2.68 W 3.13 W 3.80 W No 0.000 No Precipitation 05/30/2019 03:30 PM 05/30/2019 03:35 PM 0.000 0.000 0.000 0.000 0.000 Not Reported Not Reported
07/12/2019 02:10 AM 55.40 50.54 46.22 79.16 52.34 71.0 Not Reported 3.13 W 3.13 W 3.36 W No 0.000 No Precipitation 05/30/2019 03:30 PM 05/30/2019 03:35 PM 0.000 0.000 0.000 0.000 0.000 Not Reported Not Reported
07/12/2019 02:15 AM 55.58 50.54 46.22 79.16 52.34 70.0 Not Reported 2.68 W 2.46 W 3.36 W No 0.000 No Precipitation 05/30/2019 03:30 PM 05/30/2019 03:35 PM 0.000 0.000 0.000 0.000 0.000 Not Reported Not Reported
07/12/2019 02:20 AM 55.40 50.54 46.22 79.16 52.34 70.0 Not Reported 2.24 W 2.01 W 3.13 W No 0.000 No Precipitation 05/30/2019 03:30 PM 05/30/2019 03:35 PM 0.000 0.000 0.000 0.000 0.000 Not Reported Not Reported
07/12/2019 02:25 AM 55.40 50.54 46.22 79.16 52.34 71.0 Not Reported 1.34 NW 0.89 W 3.13 W No 0.000 No Precipitation 05/30/2019 03:30 PM 05/30/2019 03:35 PM 0.000 0.000 0.000 0.000 0.000 Not Reported Not Reported
07/12/2019 02:30 AM 55.58 50.36 46.04 79.16 52.34 70.0 Not Reported 1.12 NW 1.12 NW 1.79 W No 0.000 No Precipitation 05/30/2019 03:30 PM 05/30/2019 03:35 PM 0.000 0.000 0.000 0.000 0.000 Not Reported Not Reported
07/12/2019 02:35 AM 55.94 50.54 45.86 79.16 52.34 68.0 Not Reported 0.89 NW 0.89 NW 1.79 W No 0.000 No Precipitation 05/30/2019 03:30 PM 05/30/2019 03:35 PM 0.000 0.000 0.000 0.000 0.000 Not Reported Not Reported
07/12/2019 02:40 AM 56.12 50.36 45.32 79.16 52.34 66.0 Not Reported 1.12 NW 0.89 NW 1.12 W No 0.000 No Precipitation 05/30/2019 03:30 PM 05/30/2019 03:35 PM 0.000 0.000 0.000 0.000 0.000 Not Reported Not Reported
07/12/2019 02:45 AM 56.30 50.18 44.78 79.16 52.34 65.0 Not Reported 0.89 W 1.12 W 1.12 W No 0.000 No Precipitation 05/30/2019 03:30 PM 05/30/2019 03:35 PM 0.000 0.000 0.000 0.000 0.000 Not Reported Not Reported
07/12/2019 02:50 AM 56.30 50.18 44.60 79.16 52.34 64.0 Not Reported 1.12 W 0.89 NW 1.34 NW No 0.000 No Precipitation 05/30/2019 03:30 PM 05/30/2019 03:35 PM 0.000 0.000 0.000 0.000 0.000 Not Reported Not Reported
07/12/2019 02:55 AM 56.30 50.18 44.60 79.16 52.34 64.0 Not Reported 1.34 NW 1.79 W 1.34 NW No 0.000 No Precipitation 05/30/2019 03:30 PM 05/30/2019 03:35 PM 0.000 0.000 0.000 0.000 0.000 Not Reported Not Reported
07/12/2019 03:00 AM 56.30 50.00 44.60 79.16 52.34 64.0 Not Reported 2.01 W 2.01 W 2.46 NW No 0.000 No Precipitation 05/30/2019 03:30 PM 05/30/2019 03:35 PM 0.000 0.000 0.000 0.000 0.000 Not Reported Not Reported
07/12/2019 03:05 AM 56.30 50.18 44.78 79.16 52.34 65.0 Not Reported 1.34 W 1.57 W 2.46 NW No 0.000 No Precipitation 05/30/2019 03:30 PM 05/30/2019 03:35 PM 0.000 0.000 0.000 0.000 0.000 Not Reported Not Reported
07/12/2019 03:10 AM 56.30 50.00 44.60 79.16 52.34 64.0 Not Reported 0.89 W 0.89 W 2.01 W No 0.000 No Precipitation 05/30/2019 03:30 PM 05/30/2019 03:35 PM 0.000 0.000 0.000 0.000 0.000 Not Reported Not Reported
07/12/2019 03:15 AM 56.30 50.00 44.60 79.16 52.34 64.0 Not Reported 0.89 W 0.89 NW 2.01 W No 0.000 No Precipitation 05/30/2019 03:30 PM 05/30/2019 03:35 PM 0.000 0.000 0.000 0.000 0.000 Not Reported Not Reported
07/12/2019 03:20 AM 56.30 50.00 44.42 79.16 52.34 64.0 Not Reported 0.89 W 0.89 W 1.12 W No 0.000 No Precipitation 05/30/2019 03:30 PM 05/30/2019 03:35 PM 0.000 0.000 0.000 0.000 0.000 Not Reported Not Reported
07/12/2019 03:25 AM 55.94 50.00 44.42 79.16 52.34 65.0 Not Reported 0.89 NW 1.34 W 1.12 W No 0.000 No Precipitation 05/30/2019 03:30 PM 05/30/2019 03:35 PM 0.000 0.000 0.000 0.000 0.000 Not Reported Not Reported
07/12/2019 03:30 AM 55.94 50.00 44.78 79.16 52.34 66.0 Not Reported 0.89 W 0.89 W 1.34 W No 0.000 No Precipitation 05/30/2019 03:30 PM 05/30/2019 03:35 PM 0.000 0.000 0.000 0.000 0.000 Not Reported Not Reported
07/12/2019 03:35 AM 56.12 50.18 44.96 79.16 52.34 66.0 Not Reported 0.00 W 0.45 W 1.34 W No 0.000 No Precipitation 05/30/2019 03:30 PM 05/30/2019 03:35 PM 0.000 0.000 0.000 0.000 0.000 Not Reported Not Reported
07/12/2019 03:40 AM 55.58 49.82 44.60 79.16 52.34 66.0 Not Reported 1.12 W 1.34 W 1.34 W No 0.000 No Precipitation 05/30/2019 03:30 PM 05/30/2019 03:35 PM 0.000 0.000 0.000 0.000 0.000 Not Reported Not Reported
07/12/2019 03:45 AM 55.58 50.00 44.78 79.16 52.34 66.0 Not Reported 1.57 W 1.79 W 1.34 W No 0.000 No Precipitation 05/30/2019 03:30 PM 05/30/2019 03:35 PM 0.000 0.000 0.000 0.000 0.000 Not Reported Not Reported
07/12/2019 03:50 AM 55.40 49.82 44.78 79.16 52.34 67.0 Not Reported 1.34 W 1.12 W 1.79 W No 0.000 No Precipitation 05/30/2019 03:30 PM 05/30/2019 03:35 PM 0.000 0.000 0.000 0.000 0.000 Not Reported Not Reported
07/12/2019 03:55 AM 55.22 49.82 44.96 79.16 52.34 68.0 Not Reported 1.34 W 1.34 W 1.79 W No 0.000 No Precipitation 05/30/2019 03:30 PM 05/30/2019 03:35 PM 0.000 0.000 0.000 0.000 0.000 Not Reported Not Reported
07/12/2019 04:00 AM 55.22 49.82 44.96 79.16 52.34 68.0 Not Reported 0.67 W 0.67 W 1.57 W No 0.000 No Precipitation 05/30/2019 03:30 PM 05/30/2019 03:35 PM 0.000 0.000 0.000 0.000 0.000 Not Reported Not Reported
07/12/2019 04:05 AM 55.40 49.82 45.14 79.16 52.34 68.0 Not Reported 0.89 NW 0.89 W 1.57 W No 0.000 No Precipitation 05/30/2019 03:30 PM 05/30/2019 03:35 PM 0.000 0.000 0.000 0.000 0.000 Not Reported Not Reported
07/12/2019 04:10 AM 55.22 49.82 45.14 79.16 52.34 68.0 Not Reported 1.12 W 1.12 W 1.57 W No 0.000 No Precipitation 05/30/2019 03:30 PM 05/30/2019 03:35 PM 0.000 0.000 0.000 0.000 0.000 Not Reported Not Reported
07/12/2019 04:15 AM 55.04 49.64 44.78 79.16 52.34 68.0 Not Reported 1.12 NW 0.89 W 1.57 W No 0.000 No Precipitation 05/30/2019 03:30 PM 05/30/2019 03:35 PM 0.000 0.000 0.000 0.000 0.000 Not Reported Not Reported
07/12/2019 04:20 AM 55.22 49.82 44.96 79.16 52.34 68.0 Not Reported 0.89 SW 0.89 SW 1.12 W No 0.000 No Precipitation 05/30/2019 03:30 PM 05/30/2019 03:35 PM 0.000 0.000 0.000 0.000 0.000 Not Reported Not Reported
07/12/2019 04:25 AM 55.04 49.64 44.60 79.16 52.34 67.0 Not Reported 0.67 NW 0.67 NW 1.12 W No 0.000 No Precipitation 05/30/2019 03:30 PM 05/30/2019 03:35 PM 0.000 0.000 0.000 0.000 0.000 Not Reported Not Reported
07/12/2019 04:30 AM 55.22 49.64 44.60 79.16 52.34 67.0 Not Reported 0.67 NW 0.67 NW 0.89 SW No 0.000 No Precipitation 05/30/2019 03:30 PM 05/30/2019 03:35 PM 0.000 0.000 0.000 0.000 0.000 Not Reported Not Reported
07/12/2019 04:35 AM 55.04 49.64 44.78 79.16 52.34 67.0 Not Reported 0.00 SW 0.00 SW 0.89 SW No 0.000 No Precipitation 05/30/2019 03:30 PM 05/30/2019 03:35 PM 0.000 0.000 0.000 0.000 0.000 Not Reported Not Reported
07/12/2019 04:40 AM 55.04 49.64 44.96 79.16 52.34 68.0 Not Reported 0.67 W 0.89 W 0.89 W No 0.000 No Precipitation 05/30/2019 03:30 PM 05/30/2019 03:35 PM 0.000 0.000 0.000 0.000 0.000 Not Reported Not Reported
07/12/2019 04:45 AM 54.68 49.46 44.78 79.16 52.34 69.0 Not Reported 0.89 W 1.34 W 0.89 W No 0.000 No Precipitation 05/30/2019 03:30 PM 05/30/2019 03:35 PM 0.000 0.000 0.000 0.000 0.000 Not Reported Not Reported
07/12/2019 04:50 AM 54.50 49.46 44.96 79.16 52.34 69.0 Not Reported 1.34 W 1.12 W 1.57 W No 0.000 No Precipitation 05/30/2019 03:30 PM 05/30/2019 03:35 PM 0.000 0.000 0.000 0.000 0.000 Not Reported Not Reported
07/12/2019 04:55 AM 54.14 49.28 44.78 79.16 52.34 70.0 Not Reported 0.89 W 1.12 NW 1.57 W No 0.000 No Precipitation 05/30/2019 03:30 PM 05/30/2019 03:35 PM 0.000 0.000 0.000 0.000 0.000 Not Reported Not Reported
07/12/2019 05:00 AM 54.14 49.28 44.78 79.16 52.34 70.0 Not Reported 0.67 W 1.34 W 1.34 W No 0.000 No Precipitation 05/30/2019 03:30 PM 05/30/2019 03:35 PM 0.000 0.000 0.000 0.000 0.000 Not Reported Not Reported
07/12/2019 05:05 AM 54.14 49.28 44.78 79.16 52.34 70.0 Not Reported 1.12 W 1.12 W 1.34 W No 0.000 No Precipitation 05/30/2019 03:30 PM 05/30/2019 03:35 PM 0.000 0.000 0.000 0.000 0.000 Not Reported Not Reported
07/12/2019 05:10 AM 54.14 49.28 44.78 79.16 52.34 70.0 Not Reported 1.12 W 1.34 W 1.34 W No 0.000 No Precipitation 05/30/2019 03:30 PM 05/30/2019 03:35 PM 0.000 0.000 0.000 0.000 0.000 Not Reported Not Reported
07/12/2019 05:15 AM 53.96 49.10 44.60 79.16 52.34 70.0 Not Reported 0.67 W 0.67 W 1.34 W No 0.000 No Precipitation 05/30/2019 03:30 PM 05/30/2019 03:35 PM 0.000 0.000 0.000 0.000 0.000 Not Reported Not Reported
07/12/2019 05:20 AM 54.14 49.10 44.60 79.16 52.34 69.0 Not Reported 0.45 W 0.45 W 1.12 W No 0.000 No Precipitation 05/30/2019 03:30 PM 05/30/2019 03:35 PM 0.000 0.000 0.000 0.000 0.000 Not Reported Not Reported
07/12/2019 05:25 AM 54.14 49.10 44.60 79.16 52.34 69.0 Not Reported 0.67 W 0.67 W 1.12 W No 0.000 No Precipitation 05/30/2019 03:30 PM 05/30/2019 03:35 PM 0.000 0.000 0.000 0.000 0.000 Not Reported Not Reported
07/12/2019 05:30 AM 53.96 48.92 44.42 79.16 52.34 70.0 Not Reported 0.45 W 0.22 W 0.89 W No 0.000 No Precipitation 05/30/2019 03:30 PM 05/30/2019 03:35 PM 0.000 0.000 0.000 0.000 0.000 Not Reported Not Reported
07/12/2019 05:35 AM 54.14 49.10 44.60 79.16 52.34 70.0 Not Reported 0.67 W 0.67 W 0.89 W No 0.000 No Precipitation 05/30/2019 03:30 PM 05/30/2019 03:35 PM 0.000 0.000 0.000 0.000 0.000 Not Reported Not Reported
07/12/2019 05:40 AM 53.96 49.10 44.78 79.16 52.34 70.0 Not Reported 0.00 W 0.00 W 0.89 W No 0.000 No Precipitation 05/30/2019 03:30 PM 05/30/2019 03:35 PM 0.000 0.000 0.000 0.000 0.000 Not Reported Not Reported
07/12/2019 05:45 AM 53.96 49.10 44.78 79.16 52.34 70.0 Not Reported 0.00 N 0.00 SW 0.89 W No 0.000 No Precipitation 05/30/2019 03:30 PM 05/30/2019 03:35 PM 0.000 0.000 0.000 0.000 0.000 Not Reported Not Reported
07/12/2019 05:50 AM 53.96 49.28 44.96 79.16 52.34 71.0 Not Reported 0.00 N 0.00 W 0.22 W No 0.000 No Precipitation 05/30/2019 03:30 PM 05/30/2019 03:35 PM 0.000 0.000 0.000 0.000 0.000 Not Reported Not Reported
07/12/2019 05:55 AM 53.78 49.10 44.78 79.16 52.34 71.0 Not Reported 0.22 SW 0.00 SW 0.22 W No 0.000 No Precipitation 05/30/2019 03:30 PM 05/30/2019 03:35 PM 0.000 0.000 0.000 0.000 0.000 Not Reported Not Reported
07/12/2019 06:00 AM 53.60 48.92 44.78 79.16 52.34 71.0 Not Reported 0.22 SW 0.45 SW 0.67 SW No 0.000 No Precipitation 05/30/2019 03:30 PM 05/30/2019 03:35 PM 0.000 0.000 0.000 0.000 0.000 Not Reported Not Reported
07/12/2019 06:05 AM 53.78 49.10 44.78 79.16 52.34 71.0 Not Reported 0.45 SW 0.67 SW 0.67 SW No 0.000 No Precipitation 05/30/2019 03:30 PM 05/30/2019 03:35 PM 0.000 0.000 0.000 0.000 0.000 Not Reported Not Reported
07/12/2019 06:10 AM 53.78 49.10 44.78 79.16 52.34 71.0 Not Reported 0.00 W 0.00 W 0.67 SW No 0.000 No Precipitation 05/30/2019 03:30 PM 05/30/2019 03:35 PM 0.000 0.000 0.000 0.000 0.000 Not Reported Not Reported
07/12/2019 06:15 AM 53.60 48.92 44.78 79.16 52.34 71.0 Not Reported 0.00 N 0.45 SW 0.67 SW No 0.000 No Precipitation 05/30/2019 03:30 PM 05/30/2019 03:35 PM 0.000 0.000 0.000 0.000 0.000 Not Reported Not Reported
07/12/2019 06:20 AM 53.60 48.92 44.78 79.16 52.34 71.0 Not Reported 0.00 N 0.00 SW 0.45 SW No 0.000 No Precipitation 05/30/2019 03:30 PM 05/30/2019 03:35 PM 0.000 0.000 0.000 0.000 0.000 Not Reported Not Reported
07/12/2019 06:25 AM 53.60 49.10 44.96 79.16 52.34 72.0 Not Reported 0.22 SW 0.45 SW 0.45 SW No 0.000 No Precipitation 05/30/2019 03:30 PM 05/30/2019 03:35 PM 0.000 0.000 0.000 0.000 0.000 Not Reported Not Reported
07/12/2019 06:30 AM 53.42 48.92 44.78 79.16 52.34 72.0 Not Reported 0.22 SW 0.00 SW 0.67 SW No 0.000 No Precipitation 05/30/2019 03:30 PM 05/30/2019 03:35 PM 0.000 0.000 0.000 0.000 0.000 Not Reported Not Reported
07/12/2019 06:35 AM 53.42 48.92 44.96 79.16 52.34 72.0 Not Reported 0.22 W 0.45 W 0.67 SW No 0.000 No Precipitation 05/30/2019 03:30 PM 05/30/2019 03:35 PM 0.000 0.000 0.000 0.000 0.000 Not Reported Not Reported
07/12/2019 06:40 AM 53.42 48.92 44.96 79.16 52.34 72.0 Not Reported 0.22 W 0.67 W 0.67 W No 0.000 No Precipitation 05/30/2019 03:30 PM 05/30/2019 03:35 PM 0.000 0.000 0.000 0.000 0.000 Not Reported Not Reported
07/12/2019 06:45 AM 53.42 48.92 44.96 79.16 52.34 72.0 Not Reported 0.67 W 0.45 W 0.67 W No 0.000 No Precipitation 05/30/2019 03:30 PM 05/30/2019 03:35 PM 0.000 0.000 0.000 0.000 0.000 Not Reported Not Reported
07/12/2019 06:50 AM 53.60 49.10 44.96 79.16 52.34 72.0 Not Reported 0.45 W 0.67 W 0.89 W No 0.000 No Precipitation 05/30/2019 03:30 PM 05/30/2019 03:35 PM 0.000 0.000 0.000 0.000 0.000 Not Reported Not Reported
07/12/2019 06:55 AM 53.60 49.10 44.96 79.16 52.34 72.0 Not Reported 0.67 W 0.67 W 0.89 W No 0.000 No Precipitation 05/30/2019 03:30 PM 05/30/2019 03:35 PM 0.000 0.000 0.000 0.000 0.000 Not Reported Not Reported
07/12/2019 07:00 AM 53.60 49.10 44.96 79.16 52.34 72.0 Not Reported 0.67 W 0.67 W 0.89 W No 0.000 No Precipitation 05/30/2019 03:30 PM 05/30/2019 03:35 PM 0.000 0.000 0.000 0.000 0.000 Not Reported Not Reported
07/12/2019 07:05 AM 53.78 49.28 45.14 79.16 52.34 72.0 Not Reported 0.22 W 0.00 W 0.89 W No 0.000 No Precipitation 05/30/2019 03:30 PM 05/30/2019 03:35 PM 0.000 0.000 0.000 0.000 0.000 Not Reported Not Reported
07/12/2019 07:10 AM 53.60 49.10 45.14 79.16 52.34 73.0 Not Reported 0.00 W 0.00 SW 0.67 W No 0.000 No Precipitation 05/30/2019 03:30 PM 05/30/2019 03:35 PM 0.000 0.000 0.000 0.000 0.000 Not Reported Not Reported
07/12/2019 07:15 AM 53.60 49.10 45.14 79.16 52.52 73.0 Not Reported 0.00 N 0.00 W 0.67 W No 0.000 No Precipitation 05/30/2019 03:30 PM 05/30/2019 03:35 PM 0.000 0.000 0.000 0.000 0.000 Not Reported Not Reported
07/12/2019 07:20 AM 53.60 49.28 45.50 79.16 52.70 73.0 Not Reported 0.45 W 0.89 NW 0.89 NW No 0.000 No Precipitation 05/30/2019 03:30 PM 05/30/2019 03:35 PM 0.000 0.000 0.000 0.000 0.000 Not Reported Not Reported
07/12/2019 07:25 AM 53.78 49.46 45.68 79.16 52.88 74.0 Not Reported 0.22 W 0.45 W 0.89 NW No 0.000 No Precipitation 05/30/2019 03:30 PM 05/30/2019 03:35 PM 0.000 0.000 0.000 0.000 0.000 Not Reported Not Reported
07/12/2019 07:30 AM 53.96 49.82 46.04 79.16 52.88 74.0 Not Reported 0.22 W 0.45 W 0.67 W No 0.000 No Precipitation 05/30/2019 03:30 PM 05/30/2019 03:35 PM 0.000 0.000 0.000 0.000 0.000 Not Reported Not Reported
07/12/2019 07:35 AM 53.96 49.82 46.22 79.16 53.06 75.0 Not Reported 0.00 NW 0.00 W 0.67 W No 0.000 No Precipitation 05/30/2019 03:30 PM 05/30/2019 03:35 PM 0.000 0.000 0.000 0.000 0.000 Not Reported Not Reported
07/12/2019 07:40 AM 54.14 50.00 46.58 79.16 53.06 75.0 Not Reported 0.22 W 0.00 W 0.89 W No 0.000 No Precipitation 05/30/2019 03:30 PM 05/30/2019 03:35 PM 0.000 0.000 0.000 0.000 0.000 Not Reported Not Reported
07/12/2019 07:45 AM 54.50 50.54 47.12 79.16 53.24 76.0 Not Reported 0.00 N 0.00 S 0.89 W No 0.000 No Precipitation 05/30/2019 03:30 PM 05/30/2019 03:35 PM 0.000 0.000 0.000 0.000 0.000 Not Reported Not Reported
07/12/2019 07:50 AM 54.86 50.90 47.66 79.16 53.24 76.0 Not Reported 0.00 N 0.00 SE 0.00 SW No 0.000 No Precipitation 05/30/2019 03:30 PM 05/30/2019 03:35 PM 0.000 0.000 0.000 0.000 0.000 Not Reported Not Reported
07/12/2019 07:55 AM 55.22 51.44 48.20 79.16 53.24 77.0 Not Reported 0.00 N 0.00 SE 0.00 SW No 0.000 No Precipitation 05/30/2019 03:30 PM 05/30/2019 03:35 PM 0.000 0.000 0.000 0.000 0.000 Not Reported Not Reported
07/12/2019 08:00 AM 55.58 51.44 48.20 79.16 53.24 76.0 Not Reported 0.00 N 0.00 SE 0.00 SE No 0.000 No Precipitation 05/30/2019 03:30 PM 05/30/2019 03:35 PM 0.000 0.000 0.000 0.000 0.000 Not Reported Not Reported
07/12/2019 08:05 AM 56.48 52.16 48.74 79.16 53.24 75.0 Not Reported 0.00 N 0.00 SE 0.00 SE No 0.000 No Precipitation 05/30/2019 03:30 PM 05/30/2019 03:35 PM 0.000 0.000 0.000 0.000 0.000 Not Reported Not Reported
07/12/2019 08:10 AM 58.28 53.24 49.28 79.16 53.24 71.0 Not Reported 0.00 E 0.00 SE 0.45 E No 0.000 No Precipitation 05/30/2019 03:30 PM 05/30/2019 03:35 PM 0.000 0.000 0.000 0.000 0.000 Not Reported Not Reported
07/12/2019 08:15 AM 59.72 53.96 49.28 79.16 53.24 68.0 Not Reported 0.45 E 0.67 E 0.45 E No 0.000 No Precipitation 05/30/2019 03:30 PM 05/30/2019 03:35 PM 0.000 0.000 0.000 0.000 0.000 Not Reported Not Reported
07/12/2019 08:20 AM 60.62 54.32 49.46 79.16 53.24 66.0 Not Reported 1.57 E 1.57 E 1.57 E No 0.000 No Precipitation 05/30/2019 03:30 PM 05/30/2019 03:35 PM 0.000 0.000 0.000 0.000 0.000 Not Reported Not Reported
07/12/2019 08:25 AM 61.16 54.68 49.82 79.16 53.24 66.0 Not Reported 1.12 E 1.12 E 1.57 E No 0.000 No Precipitation 05/30/2019 03:30 PM 05/30/2019 03:35 PM 0.000 0.000 0.000 0.000 0.000 Not Reported Not Reported
07/12/2019 08:30 AM 61.52 55.04 50.00 79.16 53.24 66.0 Not Reported 1.12 E 0.89 SE 2.01 E No 0.000 No Precipitation 05/30/2019 03:30 PM 05/30/2019 03:35 PM 0.000 0.000 0.000 0.000 0.000 Not Reported Not Reported
07/12/2019 08:35 AM 62.06 55.40 50.36 79.16 53.24 65.0 Not Reported 1.34 E 1.34 E 2.01 E No 0.000 No Precipitation 05/30/2019 03:30 PM 05/30/2019 03:35 PM 0.000 0.000 0.000 0.000 0.000 Not Reported Not Reported
07/12/2019 08:40 AM 62.42 55.40 50.00 79.16 53.24 63.0 Not Reported 2.01 E 1.34 E 2.24 E No 0.000 No Precipitation 05/30/2019 03:30 PM 05/30/2019 03:35 PM 0.000 0.000 0.000 0.000 0.000 Not Reported Not Reported
07/12/2019 08:45 AM 63.14 56.12 50.90 79.16 53.24 64.0 Not Reported 1.79 E 2.01 SE 2.24 E No 0.000 No Precipitation 05/30/2019 03:30 PM 05/30/2019 03:35 PM 0.000 0.000 0.000 0.000 0.000 Not Reported Not Reported
07/12/2019 08:50 AM 63.86 56.30 50.90 79.16 53.24 62.0 Not Reported 0.45 E 0.00 SE 2.46 SE No 0.000 No Precipitation 05/30/2019 03:30 PM 05/30/2019 03:35 PM 0.000 0.000 0.000 0.000 0.000 Not Reported Not Reported
07/12/2019 08:55 AM 64.40 56.84 51.26 79.16 53.24 62.0 Not Reported 0.45 SE 1.57 E 2.46 SE No 0.000 No Precipitation 05/30/2019 03:30 PM 05/30/2019 03:35 PM 0.000 0.000 0.000 0.000 0.000 Not Reported Not Reported
07/12/2019 09:00 AM 64.94 57.20 51.80 79.16 53.24 62.0 Not Reported 0.89 SE 1.57 E 2.01 NE No 0.000 No Precipitation 05/30/2019 03:30 PM 05/30/2019 03:35 PM 0.000 0.000 0.000 0.000 0.000 Not Reported Not Reported
07/12/2019 09:05 AM 65.30 57.56 51.98 79.16 53.24 62.0 Not Reported 2.01 E 2.01 SE 2.01 NE No 0.000 No Precipitation 05/30/2019 03:30 PM 05/30/2019 03:35 PM 0.000 0.000 0.000 0.000 0.000 Not Reported Not Reported
07/12/2019 09:10 AM 65.84 57.20 50.90 79.16 53.24 58.0 Not Reported 2.68 E 2.68 E 3.36 SE No 0.000 No Precipitation 05/30/2019 03:30 PM 05/30/2019 03:35 PM 0.000 0.000 0.000 0.000 0.000 Not Reported Not Reported
07/12/2019 09:15 AM 66.02 56.12 48.56 79.16 53.24 53.0 Not Reported 2.68 E 3.13 E 3.36 SE No 0.000 No Precipitation 05/30/2019 03:30 PM 05/30/2019 03:35 PM 0.000 0.000 0.000 0.000 0.000 Not Reported Not Reported
07/12/2019 09:20 AM 66.74 56.66 49.10 79.16 53.24 53.0 Not Reported 1.34 E 1.12 SE 4.03 NE No 0.000 No Precipitation 05/30/2019 03:30 PM 05/30/2019 03:35 PM 0.000 0.000 0.000 0.000 0.000 Not Reported Not Reported
07/12/2019 09:25 AM 67.10 57.38 50.18 79.16 53.24 54.0 Not Reported 1.12 E 2.91 E 4.03 NE No 0.000 No Precipitation 05/30/2019 03:30 PM 05/30/2019 03:35 PM 0.000 0.000 0.000 0.000 0.000 Not Reported Not Reported
07/12/2019 09:30 AM 67.46 58.10 51.44 79.16 53.24 56.0 Not Reported 2.46 E 2.24 NE 2.91 E No 0.000 No Precipitation 05/30/2019 03:30 PM 05/30/2019 03:35 PM 0.000 0.000 0.000 0.000 0.000 Not Reported Not Reported
07/12/2019 09:35 AM 67.64 57.74 50.54 79.16 53.24 54.0 Not Reported 2.68 E 2.91 E 2.91 E No 0.000 No Precipitation 05/30/2019 03:30 PM 05/30/2019 03:35 PM 0.000 0.000 0.000 0.000 0.000 Not Reported Not Reported
07/12/2019 09:40 AM 68.00 58.10 50.90 79.16 53.24 54.0 Not Reported 3.13 E 3.36 E 3.80 E No 0.000 No Precipitation 05/30/2019 03:30 PM 05/30/2019 03:35 PM 0.000 0.000 0.000 0.000 0.000 Not Reported Not Reported
07/12/2019 09:45 AM 68.54 57.74 50.18 79.16 53.24 51.0 Not Reported 3.58 E 3.13 E 3.80 E No 0.000 No Precipitation 05/30/2019 03:30 PM 05/30/2019 03:35 PM 0.000 0.000 0.000 0.000 0.000 Not Reported Not Reported
07/12/2019 09:50 AM 68.00 57.92 50.90 79.16 53.24 54.0 Not Reported 4.03 E 2.68 E 4.92 SE No 0.000 No Precipitation 05/30/2019 03:30 PM 05/30/2019 03:35 PM 0.000 0.000 0.000 0.000 0.000 Not Reported Not Reported
07/12/2019 09:55 AM 68.00 58.10 50.90 79.16 53.24 54.0 Not Reported 4.25 SE 3.80 NE 4.92 SE No 0.000 No Precipitation 05/30/2019 03:30 PM 05/30/2019 03:35 PM 0.000 0.000 0.000 0.000 0.000 Not Reported Not Reported
07/12/2019 10:00 AM 67.82 57.56 50.18 79.16 53.24 53.0 Not Reported 3.80 E 4.25 SE 5.82 E No 0.000 No Precipitation 05/30/2019 03:30 PM 05/30/2019 03:35 PM 0.000 0.000 0.000 0.000 0.000 Not Reported Not Reported
07/12/2019 10:05 AM 66.92 57.38 50.54 79.16 53.24 55.0 Not Reported 4.47 E 3.58 NE 5.82 E No 0.000 No Precipitation 05/30/2019 03:30 PM 05/30/2019 03:35 PM 0.000 0.000 0.000 0.000 0.000 Not Reported Not Reported
07/12/2019 10:10 AM 67.28 57.74 51.08 79.16 53.24 56.0 Not Reported 3.80 E 4.47 E 5.14 E No 0.000 No Precipitation 05/30/2019 03:30 PM 05/30/2019 03:35 PM 0.000 0.000 0.000 0.000 0.000 Not Reported Not Reported
07/12/2019 10:15 AM 67.64 57.92 50.90 79.16 53.24 55.0 Not Reported 3.13 E 2.91 E 5.14 E No 0.000 No Precipitation 05/30/2019 03:30 PM 05/30/2019 03:35 PM 0.000 0.000 0.000 0.000 0.000 Not Reported Not Reported
07/12/2019 10:20 AM 68.36 58.46 51.62 79.16 53.24 54.0 Not Reported 3.80 E 4.25 E 4.25 E No 0.000 No Precipitation 05/30/2019 03:30 PM 05/30/2019 03:35 PM 0.000 0.000 0.000 0.000 0.000 Not Reported Not Reported
07/12/2019 10:25 AM 68.90 58.46 51.08 79.16 53.24 53.0 Not Reported 3.58 E 4.25 NE 4.25 E No 0.000 No Precipitation 05/30/2019 03:30 PM 05/30/2019 03:35 PM 0.000 0.000 0.000 0.000 0.000 Not Reported Not Reported
07/12/2019 10:30 AM 68.90 58.46 51.26 79.16 53.24 53.0 Not Reported 4.47 E 4.25 E 5.37 SE No 0.000 No Precipitation 05/30/2019 03:30 PM 05/30/2019 03:35 PM 0.000 0.000 0.000 0.000 0.000 Not Reported Not Reported
07/12/2019 10:35 AM 69.08 59.00 51.80 79.16 53.24 53.0 Not Reported 4.25 E 5.14 SE 5.37 SE No 0.000 No Precipitation 05/30/2019 03:30 PM 05/30/2019 03:35 PM 0.000 0.000 0.000 0.000 0.000 Not Reported Not Reported
07/12/2019 10:40 AM 68.90 58.82 51.80 79.16 53.24 54.0 Not Reported 3.80 E 5.59 E 5.59 E No 0.000 No Precipitation 05/30/2019 03:30 PM 05/30/2019 03:35 PM 0.000 0.000 0.000 0.000 0.000 Not Reported Not Reported
07/12/2019 10:45 AM 69.44 59.36 52.34 79.16 53.24 54.0 Not Reported 2.68 NE 4.03 E 5.59 E No 0.000 No Precipitation 05/30/2019 03:30 PM 05/30/2019 03:35 PM 0.000 0.000 0.000 0.000 0.000 Not Reported Not Reported
07/12/2019 10:50 AM 69.80 59.18 52.16 79.16 53.24 53.0 Not Reported 3.80 E 4.92 E 4.92 E No 0.000 No Precipitation 05/30/2019 03:30 PM 05/30/2019 03:35 PM 0.000 0.000 0.000 0.000 0.000 Not Reported Not Reported
07/12/2019 10:55 AM 70.52 59.72 52.16 79.16 53.24 52.0 Not Reported 3.58 SE 4.92 E 4.92 E No 0.000 No Precipitation 05/30/2019 03:30 PM 05/30/2019 03:35 PM 0.000 0.000 0.000 0.000 0.000 Not Reported Not Reported
07/12/2019 11:00 AM 70.70 59.90 52.52 79.16 53.24 52.0 Not Reported 3.58 E 2.46 E 5.37 E No 0.000 No Precipitation 05/30/2019 03:30 PM 05/30/2019 03:35 PM 0.000 0.000 0.000 0.000 0.000 Not Reported Not Reported
07/12/2019 11:05 AM 71.42 59.90 52.16 79.16 53.24 50.0 Not Reported 3.80 E 2.91 E 5.37 E No 0.000 No Precipitation 05/30/2019 03:30 PM 05/30/2019 03:35 PM 0.000 0.000 0.000 0.000 0.000 Not Reported Not Reported
07/12/2019 11:10 AM 71.78 60.26 52.34 79.16 53.24 50.0 Not Reported 3.36 E 3.58 NE 4.47 E No 0.000 No Precipitation 05/30/2019 03:30 PM 05/30/2019 03:35 PM 0.000 0.000 0.000 0.000 0.000 Not Reported Not Reported
07/12/2019 11:15 AM 71.96 60.26 52.16 79.16 53.24 49.0 Not Reported 4.70 SE 3.80 E 4.47 E No 0.000 No Precipitation 05/30/2019 03:30 PM 05/30/2019 03:35 PM 0.000 0.000 0.000 0.000 0.000 Not Reported Not Reported
07/12/2019 11:20 AM 71.60 59.54 51.26 79.16 53.24 48.0 Not Reported 4.92 E 5.37 E 7.61 E No 0.000 No Precipitation 05/30/2019 03:30 PM 05/30/2019 03:35 PM 0.000 0.000 0.000 0.000 0.000 Not Reported Not Reported
07/12/2019 11:25 AM 72.50 60.26 51.98 79.16 53.24 48.0 Not Reported 4.25 E 4.70 E 7.61 E No 0.000 No Precipitation 05/30/2019 03:30 PM 05/30/2019 03:35 PM 0.000 0.000 0.000 0.000 0.000 Not Reported Not Reported
07/12/2019 11:30 AM 71.96 60.08 51.98 79.16 53.24 49.0 Not Reported 4.70 E 4.25 SE 6.26 E No 0.000 No Precipitation 05/30/2019 03:30 PM 05/30/2019 03:35 PM 0.000 0.000 0.000 0.000 0.000 Not Reported Not Reported
07/12/2019 11:35 AM 72.86 59.90 50.72 79.16 53.24 45.0 Not Reported 3.58 E 4.92 SE 6.26 E No 0.000 No Precipitation 05/30/2019 03:30 PM 05/30/2019 03:35 PM 0.000 0.000 0.000 0.000 0.000 Not Reported Not Reported
07/12/2019 11:40 AM 72.86 59.90 51.08 79.16 53.24 46.0 Not Reported 4.03 SE 5.14 SE 5.82 SE No 0.000 No Precipitation 05/30/2019 03:30 PM 05/30/2019 03:35 PM 0.000 0.000 0.000 0.000 0.000 Not Reported Not Reported
07/12/2019 11:45 AM 73.58 60.44 51.44 79.16 53.24 46.0 Not Reported 4.03 E 4.70 E 5.82 SE No 0.000 No Precipitation 05/30/2019 03:30 PM 05/30/2019 03:35 PM 0.000 0.000 0.000 0.000 0.000 Not Reported Not Reported
07/12/2019 11:50 AM 73.94 61.16 52.88 79.16 53.24 47.0 Not Reported 3.13 E 2.24 E 5.82 E No 0.000 No Precipitation 05/30/2019 03:30 PM 05/30/2019 03:35 PM 0.000 0.000 0.000 0.000 0.000 Not Reported Not Reported
07/12/2019 11:55 AM 75.74 61.70 52.52 79.16 53.24 44.0 Not Reported 2.01 NE 0.22 N 5.82 E No 0.000 No Precipitation 05/30/2019 03:30 PM 05/30/2019 03:35 PM 0.000 0.000 0.000 0.000 0.000 Not Reported Not Reported
07/12/2019 12:00 PM 74.84 60.80 51.26 79.16 53.24 43.0 Not Reported 4.92 E 4.92 E 5.82 E No 0.000 No Precipitation 05/30/2019 03:30 PM 05/30/2019 03:35 PM 0.000 0.000 0.000 0.000 0.000 Not Reported Not Reported
07/12/2019 12:05 PM 75.74 61.16 51.44 79.16 53.24 42.0 Not Reported 3.58 E 2.46 NE 5.82 E No 0.000 No Precipitation 05/30/2019 03:30 PM 05/30/2019 03:35 PM 0.000 0.000 0.000 0.000 0.000 Not Reported Not Reported
07/12/2019 12:10 PM 76.64 61.16 50.54 79.16 53.24 40.0 Not Reported 1.34 S 1.79 SW 4.47 SE No 0.000 No Precipitation 05/30/2019 03:30 PM 05/30/2019 03:35 PM 0.000 0.000 0.000 0.000 0.000 Not Reported Not Reported
07/12/2019 12:15 PM 76.28 60.44 49.28 79.16 53.24 38.0 Not Reported 2.68 W 5.14 NW 4.47 SE No 0.000 No Precipitation 05/30/2019 03:30 PM 05/30/2019 03:35 PM 0.000 0.000 0.000 0.000 0.000 Not Reported Not Reported
07/12/2019 12:20 PM 76.10 61.52 51.62 79.16 53.24 42.0 Not Reported 4.92 NW 4.47 NW 5.59 N No 0.000 No Precipitation 05/30/2019 03:30 PM 05/30/2019 03:35 PM 0.000 0.000 0.000 0.000 0.000 Not Reported Not Reported
07/12/2019 12:25 PM 75.74 61.52 51.98 79.16 53.24 43.0 Not Reported 6.26 W 3.58 S 5.59 N No 0.000 No Precipitation 05/30/2019 03:30 PM 05/30/2019 03:35 PM 0.000 0.000 0.000 0.000 0.000 Not Reported Not Reported
07/12/2019 12:30 PM 76.82 62.42 53.42 79.16 53.24 44.0 Not Reported 1.34 W 2.46 W 9.62 W No 0.000 No Precipitation 05/30/2019 03:30 PM 05/30/2019 03:35 PM 0.000 0.000 0.000 0.000 0.000 Not Reported Not Reported
07/12/2019 12:35 PM 77.18 62.06 51.98 79.16 53.24 41.0 Not Reported 4.03 NW 7.38 W 9.62 W No 0.000 No Precipitation 05/30/2019 03:30 PM 05/30/2019 03:35 PM 0.000 0.000 0.000 0.000 0.000 Not Reported Not Reported
07/12/2019 12:40 PM 76.64 61.88 52.16 79.16 53.24 42.0 Not Reported 4.47 NW 5.14 NW 10.29 W No 0.000 No Precipitation 05/30/2019 03:30 PM 05/30/2019 03:35 PM 0.000 0.000 0.000 0.000 0.000 Not Reported Not Reported
07/12/2019 12:45 PM 75.92 61.34 51.62 79.16 53.24 42.0 Not Reported 5.59 NW 8.72 W 10.29 W No 0.000 No Precipitation 05/30/2019 03:30 PM 05/30/2019 03:35 PM 0.000 0.000 0.000 0.000 0.000 Not Reported Not Reported
07/12/2019 12:50 PM 76.10 61.52 51.80 79.16 53.24 42.0 Not Reported 5.82 NW 5.59 NW 8.72 W No 0.000 No Precipitation 05/30/2019 03:30 PM 05/30/2019 03:35 PM 0.000 0.000 0.000 0.000 0.000 Not Reported Not Reported
07/12/2019 12:55 PM 77.00 62.24 52.70 79.16 53.24 42.0 Not Reported 5.59 W 6.04 W 8.72 W No 0.000 No Precipitation 05/30/2019 03:30 PM 05/30/2019 03:35 PM 0.000 0.000 0.000 0.000 0.000 Not Reported Not Reported
07/12/2019 01:00 PM 76.28 61.70 52.16 79.16 53.24 43.0 Not Reported 7.61 W 7.83 SW 10.29 W No 0.000 No Precipitation 05/30/2019 03:30 PM 05/30/2019 03:35 PM 0.000 0.000 0.000 0.000 0.000 Not Reported Not Reported
07/12/2019 01:05 PM 76.46 61.88 52.16 79.16 53.24 42.0 Not Reported 6.49 NW 4.25 W 10.29 W No 0.000 No Precipitation 05/30/2019 03:30 PM 05/30/2019 03:35 PM 0.000 0.000 0.000 0.000 0.000 Not Reported Not Reported
07/12/2019 01:10 PM 75.92 61.34 51.62 79.16 53.24 42.0 Not Reported 9.62 W 10.96 SW 10.96 SW No 0.000 No Precipitation 05/30/2019 03:30 PM 05/30/2019 03:35 PM 0.000 0.000 0.000 0.000 0.000 Not Reported Not Reported
07/12/2019 01:15 PM 76.82 61.88 51.98 79.16 53.24 42.0 Not Reported 6.93 NW 7.16 W 10.96 SW No 0.000 No Precipitation 05/30/2019 03:30 PM 05/30/2019 03:35 PM 0.000 0.000 0.000 0.000 0.000 Not Reported Not Reported
07/12/2019 01:20 PM 77.36 61.70 51.08 79.16 53.24 39.0 Not Reported 6.71 W 9.40 SW 9.40 SW No 0.000 No Precipitation 05/30/2019 03:30 PM 05/30/2019 03:35 PM 0.000 0.000 0.000 0.000 0.000 Not Reported Not Reported
07/12/2019 01:25 PM 78.08 62.06 51.26 79.16 53.24 39.0 Not Reported 5.82 W 3.36 NW 9.40 SW No 0.000 No Precipitation 05/30/2019 03:30 PM 05/30/2019 03:35 PM 0.000 0.000 0.000 0.000 0.000 Not Reported Not Reported
07/12/2019 01:30 PM 76.82 61.70 51.62 79.16 53.24 41.0 Not Reported 6.93 NW 7.61 NW 9.17 NW No 0.000 No Precipitation 05/30/2019 03:30 PM 05/30/2019 03:35 PM 0.000 0.000 0.000 0.000 0.000 Not Reported Not Reported
07/12/2019 01:35 PM 77.36 61.70 51.44 79.16 53.24 40.0 Not Reported 6.26 NW 9.62 W 9.17 NW No 0.000 No Precipitation 05/30/2019 03:30 PM 05/30/2019 03:35 PM 0.000 0.000 0.000 0.000 0.000 Not Reported Not Reported
07/12/2019 01:40 PM 76.82 61.70 51.44 79.16 53.24 41.0 Not Reported 8.28 W 5.14 NW 10.29 W No 0.000 No Precipitation 05/30/2019 03:30 PM 05/30/2019 03:35 PM 0.000 0.000 0.000 0.000 0.000 Not Reported Not Reported
07/12/2019 01:45 PM 77.36 61.52 50.90 79.16 53.24 39.0 Not Reported 7.83 W 10.29 W 10.29 W No 0.000 No Precipitation 05/30/2019 03:30 PM 05/30/2019 03:35 PM 0.000 0.000 0.000 0.000 0.000 Not Reported Not Reported
07/12/2019 01:50 PM 77.18 61.88 51.62 79.16 53.24 40.0 Not Reported 9.17 W 6.26 W 12.30 W No 0.000 No Precipitation 05/30/2019 03:30 PM 05/30/2019 03:35 PM 0.000 0.000 0.000 0.000 0.000 Not Reported Not Reported
07/12/2019 01:55 PM 77.18 61.88 51.80 79.16 53.24 41.0 Not Reported 6.71 W 5.59 W 12.30 W No 0.000 No Precipitation 05/30/2019 03:30 PM 05/30/2019 03:35 PM 0.000 0.000 0.000 0.000 0.000 Not Reported Not Reported
07/12/2019 02:00 PM 78.62 61.88 50.72 79.16 53.24 37.0 Not Reported 6.04 W 7.61 NW 11.86 W No 0.000 No Precipitation 05/30/2019 03:30 PM 05/30/2019 03:35 PM 0.000 0.000 0.000 0.000 0.000 Not Reported Not Reported
07/12/2019 02:05 PM 77.36 61.52 50.72 79.16 53.24 39.0 Not Reported 6.49 W 8.05 W 11.86 W No 0.000 No Precipitation 05/30/2019 03:30 PM 05/30/2019 03:35 PM 0.000 0.000 0.000 0.000 0.000 Not Reported Not Reported
07/12/2019 02:10 PM 78.26 61.88 51.08 79.16 53.24 38.0 Not Reported 6.26 W 8.28 W 9.62 W No 0.000 No Precipitation 05/30/2019 03:30 PM 05/30/2019 03:35 PM 0.000 0.000 0.000 0.000 0.000 Not Reported Not Reported
07/12/2019 02:15 PM 78.62 62.42 51.80 79.16 53.24 39.0 Not Reported 7.38 NW 9.84 W 9.62 W No 0.000 No Precipitation 05/30/2019 03:30 PM 05/30/2019 03:35 PM 0.000 0.000 0.000 0.000 0.000 Not Reported Not Reported
07/12/2019 02:20 PM 78.44 62.60 52.16 79.16 53.24 40.0 Not Reported 7.38 W 3.80 SW 9.84 W No 0.000 No Precipitation 05/30/2019 03:30 PM 05/30/2019 03:35 PM 0.000 0.000 0.000 0.000 0.000 Not Reported Not Reported
07/12/2019 02:25 PM 78.44 61.88 50.54 79.16 53.24 37.0 Not Reported 7.38 NW 11.41 NW 9.84 W No 0.000 No Precipitation 05/30/2019 03:30 PM 05/30/2019 03:35 PM 0.000 0.000 0.000 0.000 0.000 Not Reported Not Reported
07/12/2019 02:30 PM 76.82 61.70 51.62 79.16 53.24 41.0 Not Reported 8.50 W 8.95 W 13.20 W No 0.000 No Precipitation 05/30/2019 03:30 PM 05/30/2019 03:35 PM 0.000 0.000 0.000 0.000 0.000 Not Reported Not Reported
07/12/2019 02:35 PM 78.62 62.24 51.44 79.16 53.24 38.0 Not Reported 6.26 NW 7.38 W 13.20 W No 0.000 No Precipitation 05/30/2019 03:30 PM 05/30/2019 03:35 PM 0.000 0.000 0.000 0.000 0.000 Not Reported Not Reported
07/12/2019 02:40 PM 78.80 62.42 51.80 79.16 53.24 38.0 Not Reported 7.83 NW 7.16 NW 9.17 NW No 0.000 No Precipitation 05/30/2019 03:30 PM 05/30/2019 03:35 PM 0.000 0.000 0.000 0.000 0.000 Not Reported Not Reported
07/12/2019 02:45 PM 78.98 62.06 50.72 79.16 53.24 37.0 Not Reported 7.61 W 5.82 W 9.17 NW No 0.000 No Precipitation 05/30/2019 03:30 PM 05/30/2019 03:35 PM 0.000 0.000 0.000 0.000 0.000 Not Reported Not Reported
07/12/2019 02:50 PM 78.98 62.06 50.54 79.70 53.24 36.0 Not Reported 5.82 W 4.70 W 9.84 SW No 0.000 No Precipitation 05/30/2019 03:30 PM 05/30/2019 03:35 PM 0.000 0.000 0.000 0.000 0.000 Not Reported Not Reported
07/12/2019 02:55 PM 79.16 61.70 49.82 79.88 53.24 35.0 Not Reported 7.83 W 4.25 SW 9.84 SW No 0.000 No Precipitation 05/30/2019 03:30 PM 05/30/2019 03:35 PM 0.000 0.000 0.000 0.000 0.000 Not Reported Not Reported
07/12/2019 03:00 PM 79.52 61.70 49.46 79.88 53.24 34.0 Not Reported 8.50 NW 10.74 W 12.97 NW No 0.000 No Precipitation 05/30/2019 03:30 PM 05/30/2019 03:35 PM 0.000 0.000 0.000 0.000 0.000 Not Reported Not Reported
07/12/2019 03:05 PM 79.16 61.88 50.18 80.24 53.24 36.0 Not Reported 9.17 W 5.59 NW 12.97 NW No 0.000 No Precipitation 05/30/2019 03:30 PM 05/30/2019 03:35 PM 0.000 0.000 0.000 0.000 0.000 Not Reported Not Reported
07/12/2019 03:10 PM 80.42 61.88 49.28 80.42 53.24 33.0 Not Reported 5.14 W 6.26 W 12.30 W No 0.000 No Precipitation 05/30/2019 03:30 PM 05/30/2019 03:35 PM 0.000 0.000 0.000 0.000 0.000 Not Reported Not Reported
07/12/2019 03:15 PM 80.24 62.06 49.82 80.42 53.24 34.0 Not Reported 7.38 NW 5.82 NW 12.30 W No 0.000 No Precipitation 05/30/2019 03:30 PM 05/30/2019 03:35 PM 0.000 0.000 0.000 0.000 0.000 Not Reported Not Reported
07/12/2019 03:20 PM 80.24 61.88 49.28 80.42 53.24 33.0 Not Reported 6.93 NW 6.93 SW 11.63 W No 0.000 No Precipitation 05/30/2019 03:30 PM 05/30/2019 03:35 PM 0.000 0.000 0.000 0.000 0.000 Not Reported Not Reported
07/12/2019 03:25 PM 81.50 63.14 51.08 81.68 53.24 34.0 Not Reported 6.49 W 6.71 W 11.63 W No 0.000 No Precipitation 05/30/2019 03:30 PM 05/30/2019 03:35 PM 0.000 0.000 0.000 0.000 0.000 Not Reported Not Reported
07/12/2019 03:30 PM 79.34 61.88 50.00 81.68 53.24 35.0 Not Reported 8.05 W 8.95 W 9.17 SW No 0.000 No Precipitation 05/30/2019 03:30 PM 05/30/2019 03:35 PM 0.000 0.000 0.000 0.000 0.000 Not Reported Not Reported
07/12/2019 03:35 PM 80.42 62.06 49.46 81.68 53.24 34.0 Not Reported 5.82 NW 5.59 W 9.17 SW No 0.000 No Precipitation 05/30/2019 03:30 PM 05/30/2019 03:35 PM 0.000 0.000 0.000 0.000 0.000 Not Reported Not Reported
07/12/2019 03:40 PM 80.24 61.70 49.10 81.68 53.24 33.0 Not Reported 6.93 W 7.83 W 9.17 NW No 0.000 No Precipitation 05/30/2019 03:30 PM 05/30/2019 03:35 PM 0.000 0.000 0.000 0.000 0.000 Not Reported Not Reported
07/12/2019 03:45 PM 79.88 62.24 50.36 81.68 53.24 35.0 Not Reported 8.05 W 6.93 NW 9.17 NW No 0.000 No Precipitation 05/30/2019 03:30 PM 05/30/2019 03:35 PM 0.000 0.000 0.000 0.000 0.000 Not Reported Not Reported
07/12/2019 03:50 PM 80.60 61.70 48.56 81.68 53.24 32.0 Not Reported 5.82 W 5.59 NW 9.84 W No 0.000 No Precipitation 05/30/2019 03:30 PM 05/30/2019 03:35 PM 0.000 0.000 0.000 0.000 0.000 Not Reported Not Reported
07/12/2019 03:55 PM 79.52 61.70 49.46 81.68 53.24 34.0 Not Reported 6.93 W 5.82 W 9.84 W No 0.000 No Precipitation 05/30/2019 03:30 PM 05/30/2019 03:35 PM 0.000 0.000 0.000 0.000 0.000 Not Reported Not Reported
07/12/2019 04:00 PM 80.96 62.06 49.10 81.68 53.24 32.0 Not Reported 6.93 NW 7.83 W 10.07 SW No 0.000 No Precipitation 05/30/2019 03:30 PM 05/30/2019 03:35 PM 0.000 0.000 0.000 0.000 0.000 Not Reported Not Reported
07/12/2019 04:05 PM 80.78 61.88 48.74 81.68 53.24 32.0 Not Reported 7.16 W 9.62 W 10.07 SW No 0.000 No Precipitation 05/30/2019 03:30 PM 05/30/2019 03:35 PM 0.000 0.000 0.000 0.000 0.000 Not Reported Not Reported
07/12/2019 04:10 PM 80.06 61.70 48.92 81.68 53.24 33.0 Not Reported 5.82 W 5.59 W 13.20 W No 0.000 No Precipitation 05/30/2019 03:30 PM 05/30/2019 03:35 PM 0.000 0.000 0.000 0.000 0.000 Not Reported Not Reported
07/12/2019 04:15 PM 80.78 61.16 47.30 81.68 53.24 30.0 Not Reported 6.49 NW 8.05 SW 13.20 W No 0.000 No Precipitation 05/30/2019 03:30 PM 05/30/2019 03:35 PM 0.000 0.000 0.000 0.000 0.000 Not Reported Not Reported
07/12/2019 04:20 PM 80.06 60.62 46.58 81.68 53.24 30.0 Not Reported 7.38 W 7.38 SW 11.86 W No 0.000 No Precipitation 05/30/2019 03:30 PM 05/30/2019 03:35 PM 0.000 0.000 0.000 0.000 0.000 Not Reported Not Reported
07/12/2019 04:25 PM 79.70 60.98 47.66 81.68 53.24 32.0 Not Reported 8.50 W 11.41 W 11.86 W No 0.000 No Precipitation 05/30/2019 03:30 PM 05/30/2019 03:35 PM 0.000 0.000 0.000 0.000 0.000 Not Reported Not Reported
07/12/2019 04:30 PM 80.60 60.98 46.94 81.68 53.24 30.0 Not Reported 7.16 NW 5.82 W 11.41 W No 0.000 No Precipitation 05/30/2019 03:30 PM 05/30/2019 03:35 PM 0.000 0.000 0.000 0.000 0.000 Not Reported Not Reported
07/12/2019 04:35 PM 80.78 60.80 46.40 81.68 53.24 29.0 Not Reported 6.49 NW 7.61 SW 11.41 W No 0.000 No Precipitation 05/30/2019 03:30 PM 05/30/2019 03:35 PM 0.000 0.000 0.000 0.000 0.000 Not Reported Not Reported
07/12/2019 04:40 PM 80.78 61.34 47.48 81.68 53.24 31.0 Not Reported 5.82 W 7.38 NW 9.40 NW No 0.000 No Precipitation 05/30/2019 03:30 PM 05/30/2019 03:35 PM 0.000 0.000 0.000 0.000 0.000 Not Reported Not Reported
07/12/2019 04:45 PM 79.88 60.44 45.86 81.68 53.24 30.0 Not Reported 8.28 W 6.93 W 9.40 NW No 0.000 No Precipitation 05/30/2019 03:30 PM 05/30/2019 03:35 PM 0.000 0.000 0.000 0.000 0.000 Not Reported Not Reported
07/12/2019 04:50 PM 80.60 59.72 43.70 81.68 53.24 27.0 Not Reported 10.29 W 13.87 SW 13.87 SW No 0.000 No Precipitation 05/30/2019 03:30 PM 05/30/2019 03:35 PM 0.000 0.000 0.000 0.000 0.000 Not Reported Not Reported
07/12/2019 04:55 PM 80.24 59.90 44.60 81.68 53.24 28.0 Not Reported 8.50 W 7.16 W 13.87 SW No 0.000 No Precipitation 05/30/2019 03:30 PM 05/30/2019 03:35 PM 0.000 0.000 0.000 0.000 0.000 Not Reported Not Reported
07/12/2019 05:00 PM 80.96 60.26 44.42 81.68 53.24 27.0 Not Reported 7.16 W 8.28 NW 10.74 W No 0.000 No Precipitation 05/30/2019 03:30 PM 05/30/2019 03:35 PM 0.000 0.000 0.000 0.000 0.000 Not Reported Not Reported
07/12/2019 05:05 PM 80.96 60.26 44.78 81.68 53.24 27.0 Not Reported 8.28 W 7.61 W 10.74 W No 0.000 No Precipitation 05/30/2019 03:30 PM 05/30/2019 03:35 PM 0.000 0.000 0.000 0.000 0.000 Not Reported Not Reported
07/12/2019 05:10 PM 81.14 60.80 45.68 81.86 53.24 28.0 Not Reported 6.26 W 4.47 SW 8.72 NW No 0.000 No Precipitation 05/30/2019 03:30 PM 05/30/2019 03:35 PM 0.000 0.000 0.000 0.000 0.000 Not Reported Not Reported
07/12/2019 05:15 PM 81.32 60.44 44.78 81.86 53.24 27.0 Not Reported 7.38 NW 9.40 W 8.72 NW No 0.000 No Precipitation 05/30/2019 03:30 PM 05/30/2019 03:35 PM 0.000 0.000 0.000 0.000 0.000 Not Reported Not Reported
07/12/2019 05:20 PM 80.78 60.44 45.32 81.86 53.24 28.0 Not Reported 8.05 W 6.26 W 10.74 NW No 0.000 No Precipitation 05/30/2019 03:30 PM 05/30/2019 03:35 PM 0.000 0.000 0.000 0.000 0.000 Not Reported Not Reported
07/12/2019 05:25 PM 80.96 60.26 44.60 81.86 53.24 27.0 Not Reported 5.82 NW 6.04 W 10.74 NW No 0.000 No Precipitation 05/30/2019 03:30 PM 05/30/2019 03:35 PM 0.000 0.000 0.000 0.000 0.000 Not Reported Not Reported
07/12/2019 05:30 PM 80.96 60.26 44.60 81.86 53.24 27.0 Not Reported 7.16 W 6.49 W 8.28 W No 0.000 No Precipitation 05/30/2019 03:30 PM 05/30/2019 03:35 PM 0.000 0.000 0.000 0.000 0.000 Not Reported Not Reported
07/12/2019 05:35 PM 80.96 60.26 44.78 81.86 53.24 27.0 Not Reported 6.71 W 6.26 W 8.28 W No 0.000 No Precipitation 05/30/2019 03:30 PM 05/30/2019 03:35 PM 0.000 0.000 0.000 0.000 0.000 Not Reported Not Reported
07/12/2019 05:40 PM 80.60 60.08 44.60 81.86 53.24 28.0 Not Reported 5.59 W 6.49 SW 10.07 NW No 0.000 No Precipitation 05/30/2019 03:30 PM 05/30/2019 03:35 PM 0.000 0.000 0.000 0.000 0.000 Not Reported Not Reported
07/12/2019 05:45 PM 80.42 59.36 42.80 81.86 53.24 26.0 Not Reported 9.17 W 6.71 W 10.07 NW No 0.000 No Precipitation 05/30/2019 03:30 PM 05/30/2019 03:35 PM 0.000 0.000 0.000 0.000 0.000 Not Reported Not Reported
07/12/2019 05:50 PM 80.06 59.90 44.42 81.86 53.24 28.0 Not Reported 8.05 NW 11.18 NW 11.18 NW No 0.000 No Precipitation 05/30/2019 03:30 PM 05/30/2019 03:35 PM 0.000 0.000 0.000 0.000 0.000 Not Reported Not Reported
07/12/2019 05:55 PM 80.96 60.62 45.32 81.86 53.24 28.0 Not Reported 6.71 W 6.26 W 11.18 NW No 0.000 No Precipitation 05/30/2019 03:30 PM 05/30/2019 03:35 PM 0.000 0.000 0.000 0.000 0.000 Not Reported Not Reported
07/12/2019 06:00 PM 80.96 60.62 45.32 81.86 53.24 28.0 Not Reported 7.38 W 3.58 W 10.96 W No 0.000 No Precipitation 05/30/2019 03:30 PM 05/30/2019 03:35 PM 0.000 0.000 0.000 0.000 0.000 Not Reported Not Reported
07/12/2019 06:05 PM 81.14 60.26 44.60 81.86 53.24 27.0 Not Reported 5.37 W 5.59 W 10.96 W No 0.000 No Precipitation 05/30/2019 03:30 PM 05/30/2019 03:35 PM 0.000 0.000 0.000 0.000 0.000 Not Reported Not Reported
07/12/2019 06:10 PM 81.50 59.72 42.44 81.86 53.24 25.0 Not Reported 6.71 W 5.37 NW 9.17 W No 0.000 No Precipitation 05/30/2019 03:30 PM 05/30/2019 03:35 PM 0.000 0.000 0.000 0.000 0.000 Not Reported Not Reported
07/12/2019 06:15 PM 81.14 59.54 42.62 81.86 53.24 25.0 Not Reported 6.71 NW 7.61 SW 9.17 W No 0.000 No Precipitation 05/30/2019 03:30 PM 05/30/2019 03:35 PM 0.000 0.000 0.000 0.000 0.000 Not Reported Not Reported
07/12/2019 06:20 PM 80.60 59.18 41.72 81.86 53.24 25.0 Not Reported 8.72 W 8.05 SW 11.41 W No 0.000 No Precipitation 05/30/2019 03:30 PM 05/30/2019 03:35 PM 0.000 0.000 0.000 0.000 0.000 Not Reported Not Reported
07/12/2019 06:25 PM 81.68 60.08 43.34 81.86 53.24 25.0 Not Reported 5.59 W 7.38 W 11.41 W No 0.000 No Precipitation 05/30/2019 03:30 PM 05/30/2019 03:35 PM 0.000 0.000 0.000 0.000 0.000 Not Reported Not Reported
07/12/2019 06:30 PM 81.32 59.90 42.98 82.22 53.24 25.0 Not Reported 7.61 W 7.61 NW 9.84 W No 0.000 No Precipitation 05/30/2019 03:30 PM 05/30/2019 03:35 PM 0.000 0.000 0.000 0.000 0.000 Not Reported Not Reported
07/12/2019 06:35 PM 80.96 60.08 44.06 82.22 53.24 27.0 Not Reported 7.38 W 6.26 W 9.84 W No 0.000 No Precipitation 05/30/2019 03:30 PM 05/30/2019 03:35 PM 0.000 0.000 0.000 0.000 0.000 Not Reported Not Reported
07/12/2019 06:40 PM 81.14 59.72 42.98 82.22 53.24 25.0 Not Reported 6.26 W 9.40 W 9.40 W No 0.000 No Precipitation 05/30/2019 03:30 PM 05/30/2019 03:35 PM 0.000 0.000 0.000 0.000 0.000 Not Reported Not Reported
07/12/2019 06:45 PM 80.96 59.54 42.80 82.22 53.24 25.0 Not Reported 8.28 NW 7.83 W 9.40 W No 0.000 No Precipitation 05/30/2019 03:30 PM 05/30/2019 03:35 PM 0.000 0.000 0.000 0.000 0.000 Not Reported Not Reported
07/12/2019 06:50 PM 81.50 60.26 44.24 82.22 53.24 26.0 Not Reported 3.80 W 5.14 W 9.17 NW No 0.000 No Precipitation 05/30/2019 03:30 PM 05/30/2019 03:35 PM 0.000 0.000 0.000 0.000 0.000 Not Reported Not Reported
07/12/2019 06:55 PM 80.96 59.90 43.88 82.22 53.24 26.0 Not Reported 6.26 NW 7.61 NW 9.17 NW No 0.000 No Precipitation 05/30/2019 03:30 PM 05/30/2019 03:35 PM 0.000 0.000 0.000 0.000 0.000 Not Reported Not Reported
07/12/2019 07:00 PM 80.60 60.26 45.14 82.22 53.24 28.0 Not Reported 6.04 W 4.92 NW 7.61 NW No 0.000 No Precipitation 05/30/2019 03:30 PM 05/30/2019 03:35 PM 0.000 0.000 0.000 0.000 0.000 Not Reported Not Reported
07/12/2019 07:05 PM 80.60 59.18 41.90 82.22 53.24 25.0 Not Reported 5.37 W 6.71 W 7.61 NW No 0.000 No Precipitation 05/30/2019 03:30 PM 05/30/2019 03:35 PM 0.000 0.000 0.000 0.000 0.000 Not Reported Not Reported
07/12/2019 07:10 PM 80.78 59.72 43.34 82.22 53.24 26.0 Not Reported 3.80 W 4.92 W 8.28 W No 0.000 No Precipitation 05/30/2019 03:30 PM 05/30/2019 03:35 PM 0.000 0.000 0.000 0.000 0.000 Not Reported Not Reported
07/12/2019 07:15 PM 80.96 59.36 41.90 82.22 53.24 25.0 Not Reported 2.68 W 3.80 N 8.28 W No 0.000 No Precipitation 05/30/2019 03:30 PM 05/30/2019 03:35 PM 0.000 0.000 0.000 0.000 0.000 Not Reported Not Reported
07/12/2019 07:20 PM 80.24 58.64 41.00 82.22 53.24 24.0 Not Reported 6.71 NW 7.16 NW 9.84 NW No 0.000 No Precipitation 05/30/2019 03:30 PM 05/30/2019 03:35 PM 0.000 0.000 0.000 0.000 0.000 Not Reported Not Reported
07/12/2019 07:25 PM 80.42 58.82 41.00 82.22 53.24 24.0 Not Reported 4.25 NW 3.58 W 9.84 NW No 0.000 No Precipitation 05/30/2019 03:30 PM 05/30/2019 03:35 PM 0.000 0.000 0.000 0.000 0.000 Not Reported Not Reported
07/12/2019 07:30 PM 80.42 58.82 41.36 82.22 53.24 24.0 Not Reported 5.82 NW 2.91 NW 8.05 W No 0.000 No Precipitation 05/30/2019 03:30 PM 05/30/2019 03:35 PM 0.000 0.000 0.000 0.000 0.000 Not Reported Not Reported
07/12/2019 07:35 PM 80.06 58.46 40.64 82.22 53.24 24.0 Not Reported 4.92 NW 4.47 SW 8.05 W No 0.000 No Precipitation 05/30/2019 03:30 PM 05/30/2019 03:35 PM 0.000 0.000 0.000 0.000 0.000 Not Reported Not Reported
07/12/2019 07:40 PM 80.06 58.64 41.00 82.22 53.24 25.0 Not Reported 5.14 W 5.37 W 6.93 W No 0.000 No Precipitation 05/30/2019 03:30 PM 05/30/2019 03:35 PM 0.000 0.000 0.000 0.000 0.000 Not Reported Not Reported
07/12/2019 07:45 PM 79.70 59.18 42.80 82.22 53.24 26.0 Not Reported 4.25 W 2.68 W 6.93 W No 0.000 No Precipitation 05/30/2019 03:30 PM 05/30/2019 03:35 PM 0.000 0.000 0.000 0.000 0.000 Not Reported Not Reported
07/12/2019 07:50 PM 80.24 59.18 42.26 82.22 53.24 26.0 Not Reported 3.80 W 4.92 W 6.71 W No 0.000 No Precipitation 05/30/2019 03:30 PM 05/30/2019 03:35 PM 0.000 0.000 0.000 0.000 0.000 Not Reported Not Reported
07/12/2019 07:55 PM 80.78 59.36 42.62 82.22 53.24 25.0 Not Reported 2.91 SW 4.47 W 6.71 W No 0.000 No Precipitation 05/30/2019 03:30 PM 05/30/2019 03:35 PM 0.000 0.000 0.000 0.000 0.000 Not Reported Not Reported
07/12/2019 08:00 PM 79.70 58.82 42.08 82.22 53.24 26.0 Not Reported 5.37 W 6.04 W 6.04 W No 0.000 No Precipitation 05/30/2019 03:30 PM 05/30/2019 03:35 PM 0.000 0.000 0.000 0.000 0.000 Not Reported Not Reported
07/12/2019 08:05 PM 79.34 59.00 42.80 82.22 53.24 27.0 Not Reported 4.47 W 4.03 SW 6.04 W No 0.000 No Precipitation 05/30/2019 03:30 PM 05/30/2019 03:35 PM 0.000 0.000 0.000 0.000 0.000 Not Reported Not Reported
07/12/2019 08:10 PM 80.06 59.72 43.88 82.22 53.24 27.0 Not Reported 1.79 W 2.24 W 5.37 W No 0.000 No Precipitation 05/30/2019 03:30 PM 05/30/2019 03:35 PM 0.000 0.000 0.000 0.000 0.000 Not Reported Not Reported
07/12/2019 08:15 PM 79.16 59.18 43.34 82.22 53.24 27.0 Not Reported 2.68 W 3.58 SW 5.37 W No 0.000 No Precipitation 05/30/2019 03:30 PM 05/30/2019 03:35 PM 0.000 0.000 0.000 0.000 0.000 Not Reported Not Reported
07/12/2019 08:20 PM 79.52 59.72 44.42 82.22 53.24 28.0 Not Reported 3.13 W 3.58 W 6.26 W No 0.000 No Precipitation 05/30/2019 03:30 PM 05/30/2019 03:35 PM 0.000 0.000 0.000 0.000 0.000 Not Reported Not Reported
07/12/2019 08:25 PM 78.80 59.90 45.50 82.22 53.24 30.0 Not Reported 3.36 W 3.80 W 6.26 W No 0.000 No Precipitation 05/30/2019 03:30 PM 05/30/2019 03:35 PM 0.000 0.000 0.000 0.000 0.000 Not Reported Not Reported
07/12/2019 08:30 PM 78.26 59.90 46.40 82.22 53.24 32.0 Not Reported 2.68 W 3.13 W 4.92 W No 0.000 No Precipitation 05/30/2019 03:30 PM 05/30/2019 03:35 PM 0.000 0.000 0.000 0.000 0.000 Not Reported Not Reported
07/12/2019 08:35 PM 77.18 59.36 46.04 82.22 53.24 33.0 Not Reported 2.24 W 1.79 NW 4.92 W No 0.000 No Precipitation 05/30/2019 03:30 PM 05/30/2019 03:35 PM 0.000 0.000 0.000 0.000 0.000 Not Reported Not Reported
07/12/2019 08:40 PM 76.28 59.54 47.12 82.22 53.24 35.0 Not Reported 1.12 W 1.79 W 4.47 W No 0.000 No Precipitation 05/30/2019 03:30 PM 05/30/2019 03:35 PM 0.000 0.000 0.000 0.000 0.000 Not Reported Not Reported
07/12/2019 08:45 PM 75.56 59.36 47.30 82.22 53.24 36.0 Not Reported 0.67 NW 1.57 NW 4.47 W No 0.000 No Precipitation 05/30/2019 03:30 PM 05/30/2019 03:35 PM 0.000 0.000 0.000 0.000 0.000 Not Reported Not Reported
07/12/2019 08:50 PM 75.20 60.08 49.28 82.22 53.24 39.0 Not Reported 1.79 NW 1.57 NW 2.24 NW No 0.000 No Precipitation 05/30/2019 03:30 PM 05/30/2019 03:35 PM 0.000 0.000 0.000 0.000 0.000 Not Reported Not Reported
07/12/2019 08:55 PM 74.12 59.00 47.84 82.22 53.24 39.0 Not Reported 1.57 NW 0.67 NW 2.24 NW No 0.000 No Precipitation 05/30/2019 03:30 PM 05/30/2019 03:35 PM 0.000 0.000 0.000 0.000 0.000 Not Reported Not Reported
07/12/2019 09:00 PM 73.58 59.90 50.36 82.22 53.24 44.0 Not Reported 1.12 W 1.34 W 2.24 NW No 0.000 No Precipitation 05/30/2019 03:30 PM 05/30/2019 03:35 PM 0.000 0.000 0.000 0.000 0.000 Not Reported Not Reported
07/12/2019 09:05 PM 72.68 59.90 51.08 82.22 53.24 46.0 Not Reported 1.34 W 1.57 W 2.24 NW No 0.000 No Precipitation 05/30/2019 03:30 PM 05/30/2019 03:35 PM 0.000 0.000 0.000 0.000 0.000 Not Reported Not Reported
07/12/2019 09:10 PM 71.78 59.36 50.90 82.22 53.24 47.0 Not Reported 1.34 W 1.34 W 1.79 W No 0.000 No Precipitation 05/30/2019 03:30 PM 05/30/2019 03:35 PM 0.000 0.000 0.000 0.000 0.000 Not Reported Not Reported
07/12/2019 09:15 PM 71.06 59.18 51.08 82.22 53.24 49.0 Not Reported 1.12 W 1.12 NW 1.79 W No 0.000 No Precipitation 05/30/2019 03:30 PM 05/30/2019 03:35 PM 0.000 0.000 0.000 0.000 0.000 Not Reported Not Reported
07/12/2019 09:20 PM 70.34 59.00 51.08 82.22 53.24 50.0 Not Reported 1.12 NW 1.34 NW 1.57 NW No 0.000 No Precipitation 05/30/2019 03:30 PM 05/30/2019 03:35 PM 0.000 0.000 0.000 0.000 0.000 Not Reported Not Reported
07/12/2019 09:25 PM 69.62 58.64 51.08 82.22 53.24 51.0 Not Reported 1.34 NW 0.67 NW 1.57 NW No 0.000 No Precipitation 05/30/2019 03:30 PM 05/30/2019 03:35 PM 0.000 0.000 0.000 0.000 0.000 Not Reported Not Reported
07/12/2019 09:30 PM 68.90 58.64 51.44 82.22 53.24 53.0 Not Reported 1.12 NW 1.12 W 1.79 NW No 0.000 No Precipitation 05/30/2019 03:30 PM 05/30/2019 03:35 PM 0.000 0.000 0.000 0.000 0.000 Not Reported Not Reported
07/12/2019 09:35 PM 67.82 58.28 51.62 82.22 53.24 56.0 Not Reported 1.79 W 2.01 W 1.79 NW No 0.000 No Precipitation 05/30/2019 03:30 PM 05/30/2019 03:35 PM 0.000 0.000 0.000 0.000 0.000 Not Reported Not Reported
07/12/2019 09:40 PM 67.46 57.92 51.44 82.22 53.24 56.0 Not Reported 2.46 W 2.24 W 2.68 W No 0.000 No Precipitation 05/30/2019 03:30 PM 05/30/2019 03:35 PM 0.000 0.000 0.000 0.000 0.000 Not Reported Not Reported
07/12/2019 09:45 PM 67.10 58.10 51.80 82.22 53.24 57.0 Not Reported 2.46 W 2.46 W 2.68 W No 0.000 No Precipitation 05/30/2019 03:30 PM 05/30/2019 03:35 PM 0.000 0.000 0.000 0.000 0.000 Not Reported Not Reported
07/12/2019 09:50 PM 66.56 57.92 51.80 82.22 53.24 58.0 Not Reported 2.01 W 2.01 W 2.68 W No 0.000 No Precipitation 05/30/2019 03:30 PM 05/30/2019 03:35 PM 0.000 0.000 0.000 0.000 0.000 Not Reported Not Reported
07/12/2019 09:55 PM 66.02 57.56 51.62 82.22 53.24 59.0 Not Reported 2.46 W 2.68 W 2.68 W No 0.000 No Precipitation 05/30/2019 03:30 PM 05/30/2019 03:35 PM 0.000 0.000 0.000 0.000 0.000 Not Reported Not Reported
07/12/2019 10:00 PM 65.66 57.02 50.90 82.22 53.24 58.0 Not Reported 2.46 NW 2.68 NW 2.91 W No 0.000 No Precipitation 05/30/2019 03:30 PM 05/30/2019 03:35 PM 0.000 0.000 0.000 0.000 0.000 Not Reported Not Reported
07/12/2019 10:05 PM 65.66 57.20 51.26 82.22 53.24 59.0 Not Reported 3.13 W 2.24 W 2.91 W No 0.000 No Precipitation 05/30/2019 03:30 PM 05/30/2019 03:35 PM 0.000 0.000 0.000 0.000 0.000 Not Reported Not Reported
07/12/2019 10:10 PM 65.30 57.02 51.08 82.22 53.24 60.0 Not Reported 2.24 W 1.79 W 3.36 W No 0.000 No Precipitation 05/30/2019 03:30 PM 05/30/2019 03:35 PM 0.000 0.000 0.000 0.000 0.000 Not Reported Not Reported
07/12/2019 10:15 PM 64.94 56.84 50.90 82.22 53.24 60.0 Not Reported 2.24 W 3.13 W 3.36 W No 0.000 No Precipitation 05/30/2019 03:30 PM 05/30/2019 03:35 PM 0.000 0.000 0.000 0.000 0.000 Not Reported Not Reported
07/12/2019 10:20 PM 64.94 57.02 51.44 82.22 53.24 61.0 Not Reported 3.58 W 3.58 W 3.80 W No 0.000 No Precipitation 05/30/2019 03:30 PM 05/30/2019 03:35 PM 0.000 0.000 0.000 0.000 0.000 Not Reported Not Reported
07/12/2019 10:25 PM 65.30 57.02 50.90 82.22 53.24 59.0 Not Reported 2.46 W 3.58 W 3.80 W No 0.000 No Precipitation 05/30/2019 03:30 PM 05/30/2019 03:35 PM 0.000 0.000 0.000 0.000 0.000 Not Reported Not Reported
07/12/2019 10:30 PM 65.30 57.02 51.08 82.22 53.24 59.0 Not Reported 2.91 W 2.68 W 4.03 W No 0.000 No Precipitation 05/30/2019 03:30 PM 05/30/2019 03:35 PM 0.000 0.000 0.000 0.000 0.000 Not Reported Not Reported
07/12/2019 10:35 PM 65.12 56.66 50.54 82.22 53.24 59.0 Not Reported 3.13 NW 3.58 NW 4.03 W No 0.000 No Precipitation 05/30/2019 03:30 PM 05/30/2019 03:35 PM 0.000 0.000 0.000 0.000 0.000 Not Reported Not Reported
07/12/2019 10:40 PM 64.76 56.84 51.26 82.22 53.24 61.0 Not Reported 3.13 W 4.03 W 5.37 W No 0.000 No Precipitation 05/30/2019 03:30 PM 05/30/2019 03:35 PM 0.000 0.000 0.000 0.000 0.000 Not Reported Not Reported
07/12/2019 10:45 PM 63.68 56.48 51.08 82.22 53.24 63.0 Not Reported 4.70 W 3.36 W 5.37 W No 0.000 No Precipitation 05/30/2019 03:30 PM 05/30/2019 03:35 PM 0.000 0.000 0.000 0.000 0.000 Not Reported Not Reported
07/12/2019 10:50 PM 62.96 56.12 51.26 82.22 53.24 65.0 Not Reported 3.13 NW 3.13 NW 5.37 W No 0.000 No Precipitation 05/30/2019 03:30 PM 05/30/2019 03:35 PM 0.000 0.000 0.000 0.000 0.000 Not Reported Not Reported
07/12/2019 10:55 PM 62.06 55.76 50.90 82.22 53.24 66.0 Not Reported 3.36 NW 3.36 NW 5.37 W No 0.000 No Precipitation 05/30/2019 03:30 PM 05/30/2019 03:35 PM 0.000 0.000 0.000 0.000 0.000 Not Reported Not Reported
07/12/2019 11:00 PM 61.34 55.40 50.90 82.22 53.24 68.0 Not Reported 3.58 NW 3.36 W 4.25 W No 0.000 No Precipitation 05/30/2019 03:30 PM 05/30/2019 03:35 PM 0.000 0.000 0.000 0.000 0.000 Not Reported Not Reported
07/12/2019 11:05 PM 61.16 55.40 51.26 82.22 53.24 69.0 Not Reported 3.36 NW 3.36 NW 4.25 W No 0.000 No Precipitation 05/30/2019 03:30 PM 05/30/2019 03:35 PM 0.000 0.000 0.000 0.000 0.000 Not Reported Not Reported
07/12/2019 11:10 PM 60.98 55.40 51.26 82.22 53.24 70.0 Not Reported 3.13 NW 3.36 NW 3.80 NW No 0.000 No Precipitation 05/30/2019 03:30 PM 05/30/2019 03:35 PM 0.000 0.000 0.000 0.000 0.000 Not Reported Not Reported
07/12/2019 11:15 PM 60.98 55.40 51.26 82.22 53.24 70.0 Not Reported 3.36 NW 2.91 W 3.80 NW No 0.000 No Precipitation 05/30/2019 03:30 PM 05/30/2019 03:35 PM 0.000 0.000 0.000 0.000 0.000 Not Reported Not Reported
07/12/2019 11:20 PM 60.62 55.22 51.08 82.22 53.24 70.0 Not Reported 2.91 NW 2.91 NW 3.36 NW No 0.000 No Precipitation 05/30/2019 03:30 PM 05/30/2019 03:35 PM 0.000 0.000 0.000 0.000 0.000 Not Reported Not Reported
07/12/2019 11:25 PM 60.80 55.22 51.26 82.22 53.24 70.0 Not Reported 3.36 NW 3.13 NW 3.36 NW No 0.000 No Precipitation 05/30/2019 03:30 PM 05/30/2019 03:35 PM 0.000 0.000 0.000 0.000 0.000 Not Reported Not Reported
07/12/2019 11:30 PM 60.26 55.04 51.08 82.22 53.24 71.0 Not Reported 3.58 NW 3.36 NW 3.80 NW No 0.000 No Precipitation 05/30/2019 03:30 PM 05/30/2019 03:35 PM 0.000 0.000 0.000 0.000 0.000 Not Reported Not Reported
07/12/2019 11:35 PM 60.44 54.86 50.90 82.22 53.24 70.0 Not Reported 3.80 NW 3.36 NW 3.80 NW No 0.000 No Precipitation 05/30/2019 03:30 PM 05/30/2019 03:35 PM 0.000 0.000 0.000 0.000 0.000 Not Reported Not Reported
07/12/2019 11:40 PM 60.44 54.86 50.90 82.22 53.24 70.0 Not Reported 2.91 NW 2.91 NW 4.25 NW No 0.000 No Precipitation 05/30/2019 03:30 PM 05/30/2019 03:35 PM 0.000 0.000 0.000 0.000 0.000 Not Reported Not Reported
07/12/2019 11:45 PM 60.44 54.86 50.72 82.22 53.24 70.0 Not Reported 3.58 W 2.91 W 4.25 NW No 0.000 No Precipitation 05/30/2019 03:30 PM 05/30/2019 03:35 PM 0.000 0.000 0.000 0.000 0.000 Not Reported Not Reported
07/12/2019 11:50 PM 60.44 54.68 50.36 82.22 53.24 69.0 Not Reported 3.13 W 3.80 NW 4.25 W No 0.000 No Precipitation 05/30/2019 03:30 PM 05/30/2019 03:35 PM 0.000 0.000 0.000 0.000 0.000 Not Reported Not Reported
07/12/2019 11:55 PM 60.80 55.04 50.72 82.22 53.24 69.0 Not Reported 3.58 W 3.13 NW 4.25 W No 0.000 No Precipitation 05/30/2019 03:30 PM 05/30/2019 03:35 PM 0.000 0.000 0.000 0.000 0.000 Not Reported Not Reported